createdAt,value
2023-01-25T00:01:59.406Z,4.81
2023-01-25T00:04:29.295Z,4.80
2023-01-25T00:06:56.253Z,4.79
2023-01-25T00:09:24.109Z,4.80
2023-01-25T00:11:51.290Z,4.82
2023-01-25T00:14:18.193Z,4.80
2023-01-25T00:16:44.949Z,4.72
2023-01-25T00:19:15.578Z,4.69
2023-01-25T00:21:42.547Z,4.65
2023-01-25T00:24:11.962Z,4.66
2023-01-25T00:26:39.432Z,4.61
2023-01-25T00:29:06.605Z,4.59
2023-01-25T00:31:35.138Z,4.59
2023-01-25T00:34:06.823Z,4.66
2023-01-25T00:36:35.313Z,4.62
2023-01-25T00:39:02.153Z,4.56
2023-01-25T00:41:28.815Z,4.53
2023-01-25T00:43:55.604Z,4.56
2023-01-25T00:46:22.571Z,4.55
2023-01-25T00:48:49.575Z,4.54
2023-01-25T00:51:16.399Z,4.54
2023-01-25T00:53:43.139Z,4.54
2023-01-25T00:56:09.843Z,4.53
2023-01-25T00:58:36.543Z,4.51
2023-01-25T01:01:03.600Z,4.47
2023-01-25T01:03:30.409Z,4.46
2023-01-25T01:06:00.238Z,4.45
2023-01-25T01:08:27.202Z,4.45
2023-01-25T01:10:59.050Z,4.44
2023-01-25T01:13:26.240Z,4.41
2023-01-25T01:15:52.958Z,4.35
2023-01-25T01:18:20.032Z,4.35
2023-01-25T01:20:50.105Z,4.37
2023-01-25T01:23:16.792Z,4.35
2023-01-25T01:25:43.839Z,4.30
2023-01-25T01:28:11.048Z,4.26
2023-01-25T01:30:38.173Z,4.22
2023-01-25T01:33:04.868Z,4.23
2023-01-25T01:35:31.965Z,4.22
2023-01-25T01:37:59.281Z,4.18
2023-01-25T01:40:26.636Z,4.15
2023-01-25T01:42:56.472Z,4.11
2023-01-25T01:45:26.343Z,4.06
2023-01-25T01:47:53.272Z,4.05
2023-01-25T01:50:21.388Z,4.06
2023-01-25T01:52:48.957Z,4.09
2023-01-25T01:55:18.898Z,4.10
2023-01-25T01:57:49.011Z,4.10
2023-01-25T02:00:18.674Z,4.09
2023-01-25T02:02:46.450Z,4.09
2023-01-25T02:05:17.822Z,4.11
2023-01-25T02:07:47.260Z,4.13
2023-01-25T02:10:13.958Z,4.13
2023-01-25T02:12:41.488Z,4.11
2023-01-25T02:15:09.193Z,4.11
2023-01-25T02:17:38.253Z,4.10
2023-01-25T02:20:06.746Z,4.11
2023-01-25T02:22:36.632Z,4.12
2023-01-25T02:25:07.184Z,4.14
2023-01-25T02:27:36.796Z,4.18
2023-01-25T02:30:03.843Z,4.19
2023-01-25T02:32:32.244Z,4.20
2023-01-25T02:34:59.022Z,4.17
2023-01-25T02:37:26.480Z,4.16
2023-01-25T02:39:53.689Z,4.19
2023-01-25T02:42:20.416Z,4.21
2023-01-25T02:44:47.447Z,4.21
2023-01-25T02:47:14.404Z,4.22
2023-01-25T02:49:41.274Z,4.21
2023-01-25T02:52:08.408Z,4.21
2023-01-25T02:54:35.063Z,4.20
2023-01-25T02:57:01.801Z,4.21
2023-01-25T02:59:28.567Z,4.22
2023-01-25T03:01:55.321Z,4.22
2023-01-25T03:04:22.077Z,4.23
2023-01-25T03:06:52.015Z,4.24
2023-01-25T03:09:18.803Z,4.22
2023-01-25T03:11:45.716Z,4.22
2023-01-25T03:14:12.478Z,4.26
2023-01-25T03:16:39.300Z,4.27
2023-01-25T03:19:05.988Z,4.29
2023-01-25T03:21:32.696Z,4.32
2023-01-25T03:24:03.301Z,4.31
2023-01-25T03:26:30.312Z,4.33
2023-01-25T03:28:59.408Z,4.35
2023-01-25T03:31:26.389Z,4.35
2023-01-25T03:33:53.368Z,4.33
2023-01-25T03:36:20.412Z,4.33
2023-01-25T03:38:47.119Z,4.36
2023-01-25T03:41:15.097Z,4.37
2023-01-25T03:43:41.783Z,4.40
2023-01-25T03:46:08.656Z,4.39
2023-01-25T03:48:35.470Z,4.37
2023-01-25T03:51:02.544Z,4.34
2023-01-25T03:53:30.808Z,4.34
2023-01-25T03:56:00.229Z,4.36
2023-01-25T03:58:28.084Z,4.38
2023-01-25T04:00:56.161Z,4.36
2023-01-25T04:03:23.200Z,4.30
2023-01-25T04:05:50.883Z,4.29
2023-01-25T04:08:17.698Z,4.27
2023-01-25T04:10:44.911Z,4.27
2023-01-25T04:13:11.686Z,4.27
2023-01-25T04:15:38.398Z,4.26
2023-01-25T04:18:05.226Z,4.27
2023-01-25T04:20:32.345Z,4.28
2023-01-25T04:22:59.455Z,4.28
2023-01-25T04:25:26.508Z,4.29
2023-01-25T04:27:53.434Z,4.28
2023-01-25T04:30:20.241Z,4.32
2023-01-25T04:32:47.158Z,4.30
2023-01-25T04:35:14.221Z,4.30
2023-01-25T04:37:40.993Z,4.34
2023-01-25T04:40:08.823Z,4.34
2023-01-25T04:42:35.754Z,4.32
2023-01-25T04:45:02.379Z,4.30
2023-01-25T04:47:29.177Z,4.28
2023-01-25T04:49:56.214Z,4.23
2023-01-25T04:52:22.899Z,4.23
2023-01-25T04:54:49.631Z,4.23
2023-01-25T04:57:16.399Z,4.22
2023-01-25T04:59:43.201Z,4.19
2023-01-25T05:02:09.914Z,4.17
2023-01-25T05:04:36.790Z,4.14
2023-01-25T05:07:03.909Z,4.14
2023-01-25T05:09:31.214Z,4.17
2023-01-25T05:11:57.901Z,4.18
2023-01-25T05:14:25.001Z,4.16
2023-01-25T05:16:52.077Z,4.15
2023-01-25T05:19:18.891Z,4.13
2023-01-25T05:21:48.857Z,4.14
2023-01-25T05:24:15.951Z,4.16
2023-01-25T05:26:45.836Z,4.15
2023-01-25T05:29:12.574Z,4.14
2023-01-25T05:31:39.291Z,4.15
2023-01-25T05:34:06.393Z,4.13
2023-01-25T05:36:33.134Z,4.11
2023-01-25T05:38:59.843Z,4.11
2023-01-25T05:41:26.554Z,4.09
2023-01-25T05:43:53.325Z,4.07
2023-01-25T05:46:20.594Z,4.07
2023-01-25T05:48:48.371Z,4.07
2023-01-25T05:51:15.709Z,4.06
2023-01-25T05:53:42.400Z,4.06
2023-01-25T05:56:10.848Z,4.08
2023-01-25T05:58:38.259Z,4.10
2023-01-25T06:01:05.989Z,4.11
2023-01-25T06:03:33.231Z,4.13
2023-01-25T06:06:03.063Z,4.15
2023-01-25T06:08:30.805Z,4.18
2023-01-25T06:10:58.106Z,4.22
2023-01-25T06:13:24.877Z,4.18
2023-01-25T06:15:52.310Z,4.17
2023-01-25T06:18:19.289Z,4.17
2023-01-25T06:20:46.223Z,4.17
2023-01-25T06:23:12.913Z,4.16
2023-01-25T06:25:39.903Z,4.18
2023-01-25T06:28:06.848Z,4.21
2023-01-25T06:30:33.781Z,4.21
2023-01-25T06:33:01.258Z,4.21
2023-01-25T06:35:29.214Z,4.21
2023-01-25T06:37:57.071Z,4.22
2023-01-25T06:40:23.837Z,4.25
2023-01-25T06:42:50.704Z,4.26
2023-01-25T06:45:17.405Z,4.23
2023-01-25T06:47:44.325Z,4.23
2023-01-25T06:50:11.034Z,4.24
2023-01-25T06:52:38.148Z,4.25
2023-01-25T06:55:07.959Z,4.24
2023-01-25T06:57:35.169Z,4.27
2023-01-25T07:00:02.201Z,4.26
2023-01-25T07:02:28.993Z,4.30
2023-01-25T07:04:56.365Z,4.33
2023-01-25T07:07:23.672Z,4.32
2023-01-25T07:09:50.503Z,4.30
2023-01-25T07:12:17.582Z,4.30
2023-01-25T07:14:44.272Z,4.26
2023-01-25T07:17:11.008Z,4.24
2023-01-25T07:19:37.822Z,4.23
2023-01-25T07:22:04.923Z,4.20
2023-01-25T07:24:31.942Z,4.19
2023-01-25T07:26:58.851Z,4.18
2023-01-25T07:29:26.088Z,4.16
2023-01-25T07:31:53.355Z,4.15
2023-01-25T07:34:20.362Z,4.14
2023-01-25T07:36:47.340Z,4.12
2023-01-25T07:39:14.366Z,4.12
2023-01-25T07:41:41.219Z,4.09
2023-01-25T07:44:08.248Z,4.10
2023-01-25T07:46:35.264Z,4.12
2023-01-25T07:49:02.395Z,4.12
2023-01-25T07:51:31.239Z,4.12
2023-01-25T07:54:00.841Z,4.09
2023-01-25T07:56:28.723Z,4.14
2023-01-25T07:58:56.231Z,4.27
2023-01-25T08:01:24.084Z,4.26
2023-01-25T08:03:51.581Z,4.23
2023-01-25T08:06:27.891Z,4.21
2023-01-25T08:08:55.544Z,4.20
2023-01-25T08:11:25.643Z,4.19
2023-01-25T08:13:52.690Z,4.19
2023-01-25T08:16:21.080Z,4.18
2023-01-25T08:18:49.105Z,4.14
2023-01-25T08:21:18.691Z,4.10
2023-01-25T08:23:45.807Z,4.09
2023-01-25T08:26:14.285Z,4.08
2023-01-25T08:28:41.794Z,4.07
2023-01-25T08:31:09.138Z,4.07
2023-01-25T08:33:36.419Z,4.07
2023-01-25T08:36:03.926Z,4.03
2023-01-25T08:38:32.069Z,4.05
2023-01-25T08:41:02.194Z,4.06
2023-01-25T08:43:29.370Z,4.08
2023-01-25T08:45:57.178Z,4.02
2023-01-25T08:48:24.862Z,4.00
2023-01-25T08:50:51.816Z,4.02
2023-01-25T08:53:18.985Z,4.00
2023-01-25T08:55:46.214Z,4.00
2023-01-25T08:58:15.018Z,4.01
2023-01-25T09:00:42.778Z,4.03
2023-01-25T09:03:11.326Z,4.04
2023-01-25T09:05:39.059Z,4.06
2023-01-25T09:08:07.951Z,4.05
2023-01-25T09:10:34.971Z,4.04
2023-01-25T09:13:02.374Z,4.08
2023-01-25T09:15:29.569Z,4.07
2023-01-25T09:17:57.749Z,4.06
2023-01-25T09:20:24.880Z,4.05
2023-01-25T09:22:54.085Z,4.06
2023-01-25T09:25:21.418Z,4.06
2023-01-25T09:27:51.025Z,4.11
2023-01-25T09:30:19.489Z,3.99
2023-01-25T09:32:49.528Z,3.92
2023-01-25T09:35:16.769Z,3.93
2023-01-25T09:37:43.559Z,3.96
2023-01-25T09:40:15.208Z,4.05
2023-01-25T09:42:45.059Z,4.12
2023-01-25T09:45:13.439Z,4.14
2023-01-25T09:47:43.745Z,4.17
2023-01-25T09:50:13.960Z,4.20
2023-01-25T09:52:44.220Z,4.21
2023-01-25T09:55:14.101Z,4.25
2023-01-25T09:57:42.925Z,4.23
2023-01-25T10:00:17.206Z,4.24
2023-01-25T10:02:46.019Z,4.22
2023-01-25T10:05:17.264Z,4.24
2023-01-25T10:07:47.253Z,4.24
2023-01-25T10:10:17.374Z,4.22
2023-01-25T10:12:44.343Z,4.23
2023-01-25T10:15:18.495Z,4.22
2023-01-25T10:17:45.815Z,4.26
2023-01-25T10:20:15.933Z,4.30
2023-01-25T10:22:47.595Z,4.28
2023-01-25T10:25:24.327Z,4.26
2023-01-25T10:27:54.998Z,4.26
2023-01-25T10:30:25.020Z,4.28
2023-01-25T10:32:56.045Z,4.28
2023-01-25T10:35:35.824Z,4.28
2023-01-25T10:38:07.464Z,4.30
2023-01-25T10:40:40.193Z,4.34
2023-01-25T10:43:11.291Z,4.41
2023-01-25T10:45:38.990Z,4.43
2023-01-25T10:48:08.738Z,4.45
2023-01-25T10:50:39.264Z,4.47
2023-01-25T10:53:20.859Z,4.46
2023-01-25T10:55:55.304Z,4.43
2023-01-25T10:58:25.657Z,4.36
2023-01-25T11:00:53.213Z,4.36
2023-01-25T11:03:21.170Z,4.40
2023-01-25T11:05:53.393Z,4.40
2023-01-25T11:08:25.189Z,4.42
2023-01-25T11:10:53.187Z,4.49
2023-01-25T11:13:22.138Z,4.54
2023-01-25T11:15:52.496Z,4.56
2023-01-25T11:18:20.702Z,4.55
2023-01-25T11:20:48.204Z,4.57
2023-01-25T11:23:18.374Z,4.58
2023-01-25T11:25:45.213Z,4.60
2023-01-25T11:28:13.067Z,4.59
2023-01-25T11:30:40.320Z,4.56
2023-01-25T11:33:11.235Z,4.58
2023-01-25T11:35:43.637Z,4.59
2023-01-25T11:38:14.797Z,4.60
2023-01-25T11:40:42.124Z,4.61
2023-01-25T11:43:12.173Z,4.66
2023-01-25T11:45:42.524Z,4.67
2023-01-25T11:48:12.917Z,4.69
2023-01-25T11:50:47.323Z,4.76
2023-01-25T11:53:15.849Z,4.79
2023-01-25T11:55:46.149Z,4.81
2023-01-25T11:58:16.169Z,4.84
2023-01-25T12:00:46.341Z,4.88
2023-01-25T12:03:17.011Z,4.93
2023-01-25T12:05:47.485Z,4.94
2023-01-25T12:08:17.535Z,4.97
2023-01-25T12:10:47.622Z,4.99
2023-01-25T12:13:15.287Z,5.03
2023-01-25T12:15:52.480Z,5.04
2023-01-25T12:18:23.134Z,5.10
2023-01-25T12:21:01.068Z,5.14
2023-01-25T12:23:31.249Z,5.16
2023-01-25T12:25:59.978Z,5.16
2023-01-25T12:28:29.547Z,5.16
2023-01-25T12:30:58.225Z,5.21
2023-01-25T12:33:29.853Z,5.26
2023-01-25T12:35:59.978Z,5.31
2023-01-25T12:38:29.977Z,5.35
2023-01-25T12:41:02.078Z,5.36
2023-01-25T12:43:33.118Z,5.39
2023-01-25T12:46:02.044Z,5.43
2023-01-25T12:48:29.275Z,5.42
2023-01-25T12:50:57.395Z,5.45
2023-01-25T12:53:27.890Z,5.48
2023-01-25T12:55:56.100Z,5.49
2023-01-25T12:58:36.986Z,5.49
2023-01-25T13:01:09.836Z,5.46
2023-01-25T13:03:38.128Z,5.45
2023-01-25T13:06:06.911Z,5.43
2023-01-25T13:08:36.937Z,5.41
2023-01-25T13:11:09.335Z,5.43
2023-01-25T13:13:37.515Z,5.44
2023-01-25T13:16:07.831Z,5.44
2023-01-25T13:18:37.111Z,5.41
2023-01-25T13:21:06.995Z,5.43
2023-01-25T13:23:34.206Z,5.47
2023-01-25T13:26:04.081Z,5.52
2023-01-25T13:28:34.378Z,5.55
2023-01-25T13:31:01.576Z,5.58
2023-01-25T13:33:32.224Z,5.62
2023-01-25T13:36:19.333Z,5.64
2023-01-25T13:38:46.374Z,5.65
2023-01-25T13:41:17.145Z,5.69
2023-01-25T13:43:47.019Z,5.76
2023-01-25T13:46:16.137Z,5.78
2023-01-25T13:48:46.901Z,5.82
2023-01-25T13:51:15.569Z,5.86
2023-01-25T13:53:43.737Z,5.88
2023-01-25T13:56:15.840Z,5.86
2023-01-25T13:58:46.057Z,5.86
2023-01-25T14:01:16.193Z,5.87
2023-01-25T14:03:48.631Z,5.88
2023-01-25T14:06:18.676Z,5.87
2023-01-25T14:08:47.339Z,5.86
2023-01-25T14:11:17.519Z,5.87
2023-01-25T14:13:50.820Z,5.88
2023-01-25T14:16:18.776Z,5.91
2023-01-25T14:18:47.499Z,5.89
2023-01-25T14:21:20.035Z,5.88
2023-01-25T14:23:47.663Z,5.90
2023-01-25T14:26:18.812Z,5.92
2023-01-25T14:28:59.039Z,5.93
2023-01-25T14:31:32.603Z,5.92
2023-01-25T14:33:59.761Z,5.90
2023-01-25T14:36:28.159Z,5.88
2023-01-25T14:38:56.478Z,5.86
2023-01-25T14:41:26.781Z,5.87
2023-01-25T14:43:56.741Z,5.86
2023-01-25T14:46:27.145Z,5.88
2023-01-25T14:48:57.175Z,5.89
2023-01-25T14:51:27.218Z,5.94
2023-01-25T14:53:57.707Z,5.98
2023-01-25T14:56:25.209Z,5.92
2023-01-25T14:58:59.594Z,5.88
2023-01-25T15:01:30.892Z,5.85
2023-01-25T15:03:58.908Z,5.79
2023-01-25T15:06:26.703Z,5.80
2023-01-25T15:08:54.281Z,5.80
2023-01-25T15:11:29.536Z,5.81
2023-01-25T15:13:59.705Z,5.85
2023-01-25T15:16:29.905Z,5.88
2023-01-25T15:18:57.857Z,5.92
2023-01-25T15:21:25.490Z,5.93
2023-01-25T15:23:56.640Z,5.93
2023-01-25T15:26:25.069Z,5.92
2023-01-25T15:28:53.949Z,5.96
2023-01-25T15:31:22.928Z,6.02
2023-01-25T15:33:50.224Z,6.06
2023-01-25T15:36:18.980Z,6.04
2023-01-25T15:38:46.179Z,6.03
2023-01-25T15:41:14.268Z,6.02
2023-01-25T15:43:41.862Z,5.99
2023-01-25T15:46:15.585Z,6.00
2023-01-25T15:48:43.779Z,6.04
2023-01-25T15:51:12.422Z,6.05
2023-01-25T15:53:42.122Z,6.06
2023-01-25T15:56:12.776Z,6.07
2023-01-25T15:58:43.969Z,6.08
2023-01-25T16:01:11.700Z,6.09
2023-01-25T16:03:42.018Z,6.09
2023-01-25T16:06:12.951Z,6.07
2023-01-25T16:08:40.201Z,6.07
2023-01-25T16:11:07.552Z,6.06
2023-01-25T16:13:34.848Z,6.07
2023-01-25T16:16:02.188Z,6.09
2023-01-25T16:18:29.398Z,6.11
2023-01-25T16:20:56.584Z,6.10
2023-01-25T16:23:23.943Z,6.11
2023-01-25T16:25:52.244Z,6.10
2023-01-25T16:28:20.027Z,6.11
2023-01-25T16:30:47.429Z,6.10
2023-01-25T16:33:14.897Z,6.13
2023-01-25T16:35:42.713Z,6.15
2023-01-25T16:38:11.701Z,6.15
2023-01-25T16:40:40.116Z,6.17
2023-01-25T16:43:07.395Z,6.18
2023-01-25T16:45:35.080Z,6.19
2023-01-25T16:48:02.282Z,6.20
2023-01-25T16:50:29.547Z,6.22
2023-01-25T16:52:58.983Z,6.22
2023-01-25T16:55:26.508Z,6.23
2023-01-25T16:57:53.863Z,6.23
2023-01-25T17:00:21.399Z,6.26
2023-01-25T17:02:58.646Z,6.28
2023-01-25T17:05:29.299Z,6.28
2023-01-25T17:07:56.500Z,6.29
2023-01-25T17:10:24.337Z,6.30
2023-01-25T17:12:51.699Z,6.32
2023-01-25T17:15:21.151Z,6.31
2023-01-25T17:17:48.903Z,6.32
2023-01-25T17:20:17.074Z,6.33
2023-01-25T17:22:50.253Z,6.31
2023-01-25T17:25:19.163Z,6.33
2023-01-25T17:27:46.941Z,6.35
2023-01-25T17:30:15.254Z,6.36
2023-01-25T17:32:43.272Z,6.37
2023-01-25T17:35:11.085Z,6.38
2023-01-25T17:37:41.382Z,6.40
2023-01-25T17:40:10.318Z,6.41
2023-01-25T17:42:37.953Z,6.42
2023-01-25T17:45:05.694Z,6.42
2023-01-25T17:47:35.883Z,6.47
2023-01-25T17:50:03.390Z,6.48
2023-01-25T17:52:30.875Z,6.50
2023-01-25T17:55:01.066Z,6.51
2023-01-25T17:57:29.778Z,6.51
2023-01-25T17:59:57.323Z,6.52
2023-01-25T18:02:24.893Z,6.54
2023-01-25T18:04:52.128Z,6.54
2023-01-25T18:07:19.299Z,6.56
2023-01-25T18:09:47.063Z,6.56
2023-01-25T18:12:14.688Z,6.56
2023-01-25T18:14:42.716Z,6.54
2023-01-25T18:17:09.861Z,6.54
2023-01-25T18:19:37.789Z,6.57
2023-01-25T18:22:05.857Z,6.59
2023-01-25T18:24:34.462Z,6.61
2023-01-25T18:27:05.495Z,6.63
2023-01-25T18:29:36.493Z,6.65
2023-01-25T18:32:04.585Z,6.65
2023-01-25T18:34:31.756Z,6.66
2023-01-25T18:36:59.624Z,6.65
2023-01-25T18:39:27.277Z,6.64
2023-01-25T18:41:54.969Z,6.65
2023-01-25T18:44:21.979Z,6.66
2023-01-25T18:46:49.367Z,6.66
2023-01-25T18:49:16.908Z,6.68
2023-01-25T18:52:04.891Z,6.66
2023-01-25T18:54:32.826Z,6.68
2023-01-25T18:57:00.982Z,6.68
2023-01-25T18:59:28.076Z,6.70
2023-01-25T19:01:55.562Z,6.67
2023-01-25T19:04:22.820Z,6.67
2023-01-25T19:06:54.244Z,6.64
2023-01-25T19:09:21.225Z,6.64
2023-01-25T19:11:48.223Z,6.64
2023-01-25T19:14:15.775Z,6.65
2023-01-25T19:16:42.983Z,6.66
2023-01-25T19:19:10.453Z,6.62
2023-01-25T19:21:37.661Z,6.62
2023-01-25T19:24:04.834Z,6.61
2023-01-25T19:26:32.098Z,6.60
2023-01-25T19:28:59.040Z,6.60
2023-01-25T19:31:26.632Z,6.59
2023-01-25T19:33:55.675Z,6.59
2023-01-25T19:36:22.732Z,6.59
2023-01-25T19:38:50.091Z,6.59
2023-01-25T19:41:18.428Z,6.58
2023-01-25T19:43:45.401Z,6.56
2023-01-25T19:46:15.821Z,6.57
2023-01-25T19:48:44.065Z,6.57
2023-01-25T19:51:13.998Z,6.60
2023-01-25T19:53:46.523Z,6.63
2023-01-25T19:56:16.205Z,6.62
2023-01-25T19:58:44.177Z,6.61
2023-01-25T20:01:12.879Z,6.58
2023-01-25T20:03:40.109Z,6.62
2023-01-25T20:06:07.993Z,6.67
2023-01-25T20:08:36.553Z,6.71
2023-01-25T20:11:07.044Z,6.72
2023-01-25T20:13:33.920Z,6.75
2023-01-25T20:16:00.897Z,6.77
2023-01-25T20:18:27.865Z,6.80
2023-01-25T20:20:58.923Z,6.83
2023-01-25T20:23:25.951Z,6.84
2023-01-25T20:25:56.225Z,6.86
2023-01-25T20:28:23.055Z,6.85
2023-01-25T20:30:51.064Z,6.88
2023-01-25T20:33:18.386Z,6.91
2023-01-25T20:35:45.839Z,6.92
2023-01-25T20:38:12.924Z,6.94
2023-01-25T20:40:42.723Z,6.96
2023-01-25T20:43:09.879Z,6.99
2023-01-25T20:45:38.481Z,7.00
2023-01-25T20:48:05.513Z,7.00
2023-01-25T20:50:32.379Z,7.00
2023-01-25T20:52:59.097Z,6.99
2023-01-25T20:55:26.576Z,6.95
2023-01-25T20:57:54.440Z,6.94
2023-01-25T21:00:21.664Z,6.93
2023-01-25T21:02:48.462Z,6.92
2023-01-25T21:05:15.389Z,6.91
2023-01-25T21:07:42.371Z,6.88
2023-01-25T21:10:09.808Z,6.87
2023-01-25T21:12:36.754Z,6.87
2023-01-25T21:15:03.849Z,6.87
2023-01-25T21:17:30.980Z,6.87
2023-01-25T21:19:58.234Z,6.88
2023-01-25T21:22:25.283Z,6.89
2023-01-25T21:24:55.114Z,6.91
2023-01-25T21:27:23.112Z,6.92
2023-01-25T21:29:49.879Z,6.92
2023-01-25T21:32:16.744Z,6.96
2023-01-25T21:34:43.561Z,6.98
2023-01-25T21:37:10.500Z,6.98
2023-01-25T21:39:37.326Z,7.02
2023-01-25T21:42:04.169Z,7.03
2023-01-25T21:44:34.070Z,7.06
2023-01-25T21:47:27.752Z,7.09
2023-01-25T21:49:50.882Z,7.14
2023-01-25T21:52:17.736Z,7.18
2023-01-25T21:54:44.749Z,7.23
2023-01-25T21:57:11.929Z,7.26
2023-01-25T21:59:41.118Z,7.32
2023-01-25T22:02:11.327Z,7.40
2023-01-25T22:04:38.389Z,7.48
2023-01-25T22:07:06.259Z,7.53
2023-01-25T22:09:33.180Z,7.58
2023-01-25T22:12:02.164Z,7.65
2023-01-25T22:14:29.447Z,7.71
2023-01-25T22:16:56.593Z,7.75
2023-01-25T22:19:25.822Z,7.81
2023-01-25T22:21:52.988Z,7.83
2023-01-25T22:24:20.353Z,7.87
2023-01-25T22:26:50.383Z,7.89
2023-01-25T22:29:17.195Z,7.94
2023-01-25T22:31:44.263Z,7.98
2023-01-25T22:34:11.103Z,8.01
2023-01-25T22:36:38.535Z,8.00
2023-01-25T22:39:05.375Z,8.02
2023-01-25T22:41:32.707Z,8.01
2023-01-25T22:43:59.724Z,8.01
2023-01-25T22:46:28.164Z,8.05
2023-01-25T22:48:55.600Z,8.06
2023-01-25T22:51:25.594Z,8.07
2023-01-25T22:53:55.160Z,8.08
2023-01-25T22:56:23.679Z,8.09
2023-01-25T22:58:50.483Z,8.10
2023-01-25T23:01:17.744Z,8.13
2023-01-25T23:03:44.669Z,8.12
2023-01-25T23:06:16.459Z,8.08
2023-01-25T23:08:43.531Z,8.07
2023-01-25T23:11:11.763Z,8.05
2023-01-25T23:13:40.062Z,8.01
2023-01-25T23:16:08.351Z,8.01
2023-01-25T23:18:38.822Z,7.99
2023-01-25T23:21:05.828Z,7.97
2023-01-25T23:23:32.711Z,7.97
2023-01-25T23:26:01.897Z,7.93
2023-01-25T23:28:29.401Z,7.93
2023-01-25T23:31:11.507Z,7.89
2023-01-25T23:33:38.555Z,7.90
2023-01-25T23:36:10.133Z,7.92
2023-01-25T23:38:37.353Z,7.89
2023-01-25T23:41:04.950Z,7.88
2023-01-25T23:43:32.028Z,7.87
2023-01-25T23:45:59.318Z,7.84
2023-01-25T23:48:26.243Z,7.83
2023-01-25T23:50:53.368Z,7.79
2023-01-25T23:53:20.368Z,7.76
2023-01-25T23:55:50.443Z,7.74
2023-01-25T23:58:17.385Z,7.71
